createdAt,value
2022-10-12T00:02:00.913Z,100270.53
2022-10-12T00:04:33.859Z,100270.41
2022-10-12T00:07:05.666Z,100268.72
2022-10-12T00:09:37.527Z,100272.22
2022-10-12T00:12:09.337Z,100275.00
2022-10-12T00:14:41.051Z,100278.63
2022-10-12T00:17:12.798Z,100278.09
2022-10-12T00:19:44.540Z,100279.19
2022-10-12T00:22:16.636Z,100269.59
2022-10-12T00:24:48.360Z,100272.25
2022-10-12T00:27:20.333Z,100269.59
2022-10-12T00:29:52.102Z,100268.63
2022-10-12T00:32:23.851Z,100269.59
2022-10-12T00:34:55.561Z,100282.03
2022-10-12T00:37:27.227Z,100275.06
2022-10-12T00:39:59.409Z,100275.19
2022-10-12T00:42:31.406Z,100280.78
2022-10-12T00:45:03.582Z,100277.47
2022-10-12T00:47:39.654Z,100277.59
2022-10-12T00:50:18.356Z,100276.78
2022-10-12T00:53:05.594Z,100271.47
2022-10-12T00:55:41.093Z,100281.91
2022-10-12T00:58:13.784Z,100278.28
2022-10-12T01:00:46.581Z,100277.31
2022-10-12T01:03:23.044Z,100272.84
2022-10-12T01:05:55.528Z,100267.16
2022-10-12T01:08:29.128Z,100263.88
2022-10-12T01:11:03.709Z,100266.78
2022-10-12T01:13:35.779Z,100265.44
2022-10-12T01:16:13.379Z,100279.34
2022-10-12T01:18:54.449Z,100275.16
2022-10-12T01:21:29.839Z,100272.66
2022-10-12T01:24:07.225Z,100263.38
2022-10-12T01:27:18.673Z,100270.16
2022-10-12T01:30:11.023Z,100262.41
2022-10-12T01:32:45.328Z,100268.34
2022-10-12T01:35:21.707Z,100271.81
2022-10-12T01:38:11.208Z,100274.31
2022-10-12T01:41:05.376Z,100267.69
2022-10-12T01:43:40.051Z,100263.22
2022-10-12T01:46:25.603Z,100261.69
2022-10-12T01:49:02.312Z,100265.19
2022-10-12T01:51:55.356Z,100267.69
2022-10-12T01:54:51.695Z,100271.75
2022-10-12T01:57:46.120Z,100262.97
2022-10-12T02:00:18.182Z,100264.66
2022-10-12T02:03:04.483Z,100248.94
2022-10-12T02:05:42.824Z,100245.06
2022-10-12T02:08:37.325Z,100246.88
2022-10-12T02:11:15.860Z,100259.59
2022-10-12T02:14:06.320Z,100264.34
2022-10-12T02:16:46.457Z,100262.81
2022-10-12T02:19:24.638Z,100268.53
2022-10-12T02:22:00.639Z,100263.38
2022-10-12T02:24:35.452Z,100264.22
2022-10-12T02:27:10.844Z,100257.28
2022-10-12T02:29:47.068Z,100260.88
2022-10-12T02:32:37.610Z,100253.78
2022-10-12T02:35:35.802Z,100256.28
2022-10-12T02:38:25.290Z,100252.69
2022-10-12T02:41:12.765Z,100244.06
2022-10-12T02:43:46.758Z,100238.94
2022-10-12T02:46:22.724Z,100238.94
2022-10-12T02:48:57.064Z,100231.44
2022-10-12T02:51:30.229Z,100231.63
2022-10-12T02:54:03.274Z,100227.31
2022-10-12T02:56:35.288Z,100233.03
2022-10-12T02:59:06.976Z,100244.78
2022-10-12T03:01:38.778Z,100240.66
2022-10-12T03:04:10.788Z,100238.00
2022-10-12T03:06:45.209Z,100226.31
2022-10-12T03:09:17.051Z,100241.31
2022-10-12T03:11:48.804Z,100234.38
2022-10-12T03:14:21.198Z,100233.69
2022-10-12T03:16:53.329Z,100240.97
2022-10-12T03:19:25.110Z,100236.78
2022-10-12T03:21:57.174Z,100233.19
2022-10-12T03:24:29.130Z,100235.94
2022-10-12T03:27:04.055Z,100249.16
2022-10-12T03:29:35.728Z,100246.50
2022-10-12T03:32:07.488Z,100239.28
2022-10-12T03:34:39.278Z,100244.28
2022-10-12T03:37:11.081Z,100241.34
2022-10-12T03:39:42.841Z,100233.97
2022-10-12T03:42:15.008Z,100243.44
2022-10-12T03:44:48.839Z,100242.28
2022-10-12T03:47:20.747Z,100245.53
2022-10-12T03:49:52.396Z,100244.38
2022-10-12T03:52:24.111Z,100245.91
2022-10-12T03:54:56.043Z,100250.09
2022-10-12T03:57:27.919Z,100245.91
2022-10-12T03:59:59.634Z,100238.97
2022-10-12T04:02:31.340Z,100239.81
2022-10-12T04:05:04.527Z,100234.53
2022-10-12T04:07:39.736Z,100238.44
2022-10-12T04:10:11.952Z,100233.25
2022-10-12T04:12:46.926Z,100239.50
2022-10-12T04:15:18.735Z,100243.00
2022-10-12T04:17:52.679Z,100232.03
2022-10-12T04:20:24.501Z,100242.44
2022-10-12T04:22:56.195Z,100234.25
2022-10-12T04:25:30.236Z,100230.59
2022-10-12T04:28:02.274Z,100226.84
2022-10-12T04:30:34.103Z,100231.19
2022-10-12T04:33:05.990Z,100229.25
2022-10-12T04:35:37.922Z,100240.63
2022-10-12T04:38:09.937Z,100238.69
2022-10-12T04:40:41.739Z,100236.31
2022-10-12T04:43:15.313Z,100236.63
2022-10-12T04:45:55.150Z,100244.44
2022-10-12T04:48:27.965Z,100244.03
2022-10-12T04:50:59.696Z,100245.28
2022-10-12T04:53:31.787Z,100242.72
2022-10-12T04:56:05.288Z,100246.19
2022-10-12T04:58:37.577Z,100244.53
2022-10-12T05:01:10.194Z,100249.69
2022-10-12T05:03:42.352Z,100247.56
2022-10-12T05:06:16.921Z,100247.75
2022-10-12T05:08:48.838Z,100248.28
2022-10-12T05:11:20.497Z,100253.53
2022-10-12T05:13:52.304Z,100249.84
2022-10-12T05:16:24.151Z,100258.13
2022-10-12T05:18:56.021Z,100255.94
2022-10-12T05:21:27.935Z,100250.38
2022-10-12T05:23:59.746Z,100250.09
2022-10-12T05:26:31.519Z,100253.97
2022-10-12T05:29:06.371Z,100251.19
2022-10-12T05:31:38.411Z,100248.88
2022-10-12T05:34:10.604Z,100253.44
2022-10-12T05:36:42.269Z,100248.44
2022-10-12T05:39:14.084Z,100259.53
2022-10-12T05:41:45.787Z,100251.75
2022-10-12T05:44:17.664Z,100255.78
2022-10-12T05:46:49.330Z,100258.44
2022-10-12T05:49:21.078Z,100256.50
2022-10-12T05:51:52.814Z,100257.16
2022-10-12T05:54:24.578Z,100267.72
2022-10-12T05:56:56.246Z,100269.38
2022-10-12T05:59:30.985Z,100265.25
2022-10-12T06:02:02.942Z,100265.88
2022-10-12T06:04:34.673Z,100268.75
2022-10-12T06:07:07.114Z,100268.53
2022-10-12T06:09:39.152Z,100273.63
2022-10-12T06:12:10.874Z,100276.25
2022-10-12T06:14:42.976Z,100273.47
2022-10-12T06:17:14.683Z,100277.06
2022-10-12T06:19:46.507Z,100274.25
2022-10-12T06:22:18.347Z,100281.06
2022-10-12T06:24:50.764Z,100272.69
2022-10-12T06:27:22.560Z,100278.38
2022-10-12T06:29:54.312Z,100271.38
2022-10-12T06:32:25.977Z,100280.28
2022-10-12T06:34:57.804Z,100281.31
2022-10-12T06:37:49.039Z,100289.41
2022-10-12T06:40:21.695Z,100282.16
2022-10-12T06:42:58.461Z,100283.22
2022-10-12T06:45:32.335Z,100277.72
2022-10-12T06:48:05.139Z,100282.03
2022-10-12T06:50:37.085Z,100277.56
2022-10-12T06:53:08.854Z,100272.50
2022-10-12T06:55:40.741Z,100267.53
2022-10-12T06:58:12.570Z,100270.22
2022-10-12T07:00:46.303Z,100283.53
2022-10-12T07:03:17.995Z,100281.06
2022-10-12T07:05:49.749Z,100278.66
2022-10-12T07:08:21.901Z,100272.47
2022-10-12T07:11:00.607Z,100279.59
2022-10-12T07:13:33.209Z,100292.66
2022-10-12T07:16:05.679Z,100292.19
2022-10-12T07:18:37.481Z,100289.94
2022-10-12T07:21:09.257Z,100292.38
2022-10-12T07:23:45.749Z,100284.28
2022-10-12T07:26:17.905Z,100288.34
2022-10-12T07:28:49.708Z,100282.66
2022-10-12T07:31:21.427Z,100287.94
2022-10-12T07:33:54.623Z,100286.03
2022-10-12T07:36:41.071Z,100281.28
2022-10-12T07:39:18.795Z,100275.66
2022-10-12T07:41:52.019Z,100270.03
2022-10-12T07:44:24.591Z,100278.94
2022-10-12T07:46:56.329Z,100273.38
2022-10-12T07:49:28.048Z,100273.38
2022-10-12T07:51:59.827Z,100283.63
2022-10-12T07:54:32.807Z,100270.84
2022-10-12T07:57:04.656Z,100274.34
2022-10-12T07:59:36.440Z,100271.59
2022-10-12T08:02:10.683Z,100271.06
2022-10-12T08:04:42.349Z,100270.59
2022-10-12T08:07:14.279Z,100258.97
2022-10-12T08:09:48.291Z,100268.59
2022-10-12T08:12:19.971Z,100266.22
2022-10-12T08:14:51.593Z,100267.72
2022-10-12T08:17:23.453Z,100262.44
2022-10-12T08:19:55.061Z,100264.50
2022-10-12T08:22:26.797Z,100261.53
2022-10-12T08:24:58.436Z,100261.78
2022-10-12T08:27:31.397Z,100262.53
2022-10-12T08:30:03.763Z,100261.28
2022-10-12T08:32:35.566Z,100260.56
2022-10-12T08:35:07.615Z,100250.09
2022-10-12T08:37:40.546Z,100258.72
2022-10-12T08:40:20.215Z,100256.41
2022-10-12T08:42:59.747Z,100248.75
2022-10-12T08:45:57.349Z,100249.78
2022-10-12T08:48:35.839Z,100250.44
2022-10-12T08:51:16.755Z,100252.38
2022-10-12T08:54:03.566Z,100244.63
2022-10-12T08:56:35.989Z,100242.91
2022-10-12T09:02:25.903Z,100245.53
2022-10-12T09:05:08.129Z,100236.75
2022-10-12T09:07:46.287Z,100236.38
2022-10-12T09:10:57.404Z,100239.56
2022-10-12T09:13:54.326Z,100233.06
2022-10-12T09:16:29.233Z,100244.69
2022-10-12T09:19:21.747Z,100235.19
2022-10-12T09:21:53.483Z,100236.41
2022-10-12T09:24:34.291Z,100232.69
2022-10-12T09:27:15.066Z,100224.00
2022-10-12T09:29:59.124Z,100222.50
2022-10-12T09:32:45.143Z,100222.72
2022-10-12T09:35:17.338Z,100223.44
2022-10-12T09:37:52.318Z,100218.03
2022-10-12T09:40:28.627Z,100216.50
2022-10-12T09:43:03.477Z,100217.91
2022-10-12T09:45:36.352Z,100211.47
2022-10-12T09:48:28.269Z,100213.56
2022-10-12T09:51:04.185Z,100212.03
2022-10-12T09:53:49.069Z,100214.50
2022-10-12T09:56:39.760Z,100205.47
2022-10-12T09:59:36.507Z,100216.50
2022-10-12T10:02:08.136Z,100211.34
2022-10-12T10:04:41.444Z,100211.00
2022-10-12T10:07:30.438Z,100211.34
2022-10-12T10:10:29.230Z,100204.78
2022-10-12T10:13:05.620Z,100199.25
2022-10-12T10:15:41.137Z,100215.63
2022-10-12T10:18:35.109Z,100221.66
2022-10-12T10:21:09.305Z,100215.63
2022-10-12T10:23:51.960Z,100217.94
2022-10-12T10:26:29.005Z,100213.03
2022-10-12T10:29:23.814Z,100203.97
2022-10-12T10:32:14.484Z,100212.75
2022-10-12T10:34:46.160Z,100206.78
2022-10-12T10:37:23.121Z,100206.34
2022-10-12T10:39:57.365Z,100206.78
2022-10-12T10:42:32.674Z,100202.63
2022-10-12T10:45:08.833Z,100203.41
2022-10-12T10:47:46.488Z,100196.53
2022-10-12T10:50:35.104Z,100209.59
2022-10-12T10:53:18.666Z,100199.91
2022-10-12T10:56:02.261Z,100195.78
2022-10-12T10:58:56.161Z,100184.75
2022-10-12T11:01:45.848Z,100185.03
2022-10-12T11:04:27.192Z,100184.50
2022-10-12T11:07:05.502Z,100187.81
2022-10-12T11:09:50.090Z,100171.25
2022-10-12T11:12:31.185Z,100177.50
2022-10-12T11:15:24.008Z,100171.84
2022-10-12T11:18:17.033Z,100169.28
2022-10-12T11:20:56.821Z,100168.78
2022-10-12T11:23:45.571Z,100164.72
2022-10-12T11:26:29.506Z,100167.84
2022-10-12T11:29:02.013Z,100169.97
2022-10-12T11:31:39.868Z,100167.09
2022-10-12T11:34:18.652Z,100165.63
2022-10-12T11:37:18.240Z,100161.78
2022-10-12T11:39:51.318Z,100161.78
2022-10-12T11:42:31.690Z,100158.69
2022-10-12T11:45:07.999Z,100159.94
2022-10-12T11:47:45.336Z,100158.09
2022-10-12T11:50:47.226Z,100151.69
2022-10-12T11:53:40.676Z,100148.38
2022-10-12T11:56:25.850Z,100152.34
2022-10-12T11:59:21.948Z,100137.84
2022-10-12T12:02:14.852Z,100141.63
2022-10-12T12:04:48.741Z,100130.56
2022-10-12T12:07:23.352Z,100128.91
2022-10-12T12:09:55.499Z,100128.09
2022-10-12T12:12:30.250Z,100136.50
2022-10-12T12:15:06.664Z,100135.53
2022-10-12T12:18:14.680Z,100132.22
2022-10-12T12:20:49.501Z,100130.94
2022-10-12T12:23:21.493Z,100132.59
2022-10-12T12:26:16.035Z,100123.59
2022-10-12T12:28:51.160Z,100128.84
2022-10-12T12:31:22.760Z,100121.19
2022-10-12T12:34:27.547Z,100117.84
2022-10-12T12:37:12.452Z,100113.28
2022-10-12T12:39:44.816Z,100114.38
2022-10-12T12:42:23.388Z,100110.97
2022-10-12T12:44:59.113Z,100112.81
2022-10-12T12:47:45.577Z,100109.16
2022-10-12T12:51:02.884Z,100102.19
2022-10-12T12:53:38.597Z,100096.81
2022-10-12T12:56:37.729Z,100105.06
2022-10-12T12:59:34.872Z,100100.47
2022-10-12T13:02:30.780Z,100101.97
2022-10-12T13:05:39.664Z,100098.59
2022-10-12T13:08:36.805Z,100092.88
2022-10-12T13:11:46.535Z,100094.31
2022-10-12T13:14:46.400Z,100094.13
2022-10-12T13:17:37.533Z,100083.69
2022-10-12T13:20:31.001Z,100085.97
2022-10-12T13:23:09.267Z,100079.50
2022-10-12T13:25:46.164Z,100075.91
2022-10-12T13:28:28.635Z,100078.09
2022-10-12T13:31:28.340Z,100089.31
2022-10-12T13:34:05.682Z,100080.44
2022-10-12T13:36:52.324Z,100080.69
2022-10-12T13:39:27.431Z,100076.41
2022-10-12T13:42:01.578Z,100080.16
2022-10-12T13:44:36.273Z,100079.59
2022-10-12T13:47:28.516Z,100077.91
2022-10-12T13:50:00.357Z,100076.69
2022-10-12T13:52:34.193Z,100071.56
2022-10-12T13:55:16.673Z,100072.59
2022-10-12T13:57:50.190Z,100068.22
2022-10-12T14:00:26.283Z,100064.75
2022-10-12T14:03:03.825Z,100066.84
2022-10-12T14:05:44.548Z,100064.34
2022-10-12T14:08:23.298Z,100053.84
2022-10-12T14:10:58.615Z,100057.34
2022-10-12T14:13:35.520Z,100055.06
2022-10-12T14:16:07.618Z,100051.72
2022-10-12T14:18:42.013Z,100053.00
2022-10-12T14:21:23.587Z,100058.28
2022-10-12T14:24:06.963Z,100056.81
2022-10-12T14:26:43.562Z,100052.84
2022-10-12T14:29:41.723Z,100050.56
2022-10-12T14:32:13.398Z,100053.59
2022-10-12T14:34:48.151Z,100048.59
2022-10-12T14:37:26.896Z,100052.47
2022-10-12T14:40:02.517Z,100049.16
2022-10-12T14:42:36.005Z,100045.66
2022-10-12T14:45:25.859Z,100048.75
2022-10-12T14:47:59.661Z,100051.38
2022-10-12T14:50:32.625Z,100050.97
2022-10-12T14:53:11.072Z,100049.19
2022-10-12T14:55:43.191Z,100043.44
2022-10-12T14:58:17.213Z,100046.94
2022-10-12T15:00:52.664Z,100040.16
2022-10-12T15:03:25.710Z,100037.63
2022-10-12T15:05:57.450Z,100038.09
2022-10-12T15:08:29.074Z,100028.38
2022-10-12T15:11:00.820Z,100035.75
2022-10-12T15:13:35.575Z,100038.19
2022-10-12T15:16:21.453Z,100029.56
2022-10-12T15:18:53.286Z,100025.19
2022-10-12T15:21:25.944Z,100030.47
2022-10-12T15:23:57.666Z,100025.53
2022-10-12T15:26:29.585Z,100022.38
2022-10-12T15:29:01.389Z,100030.78
2022-10-12T15:31:33.061Z,100031.22
2022-10-12T15:34:11.365Z,100028.47
2022-10-12T15:36:43.169Z,100030.91
2022-10-12T15:39:15.073Z,100022.41
2022-10-12T15:41:46.923Z,100027.44
2022-10-12T15:44:18.912Z,100029.13
2022-10-12T15:46:53.904Z,100027.03
2022-10-12T15:49:25.687Z,100021.19
2022-10-12T15:51:57.326Z,100013.75
2022-10-12T15:54:29.358Z,100017.81
2022-10-12T15:57:01.091Z,100013.69
2022-10-12T15:59:33.320Z,100014.06
2022-10-12T16:02:12.541Z,100011.75
2022-10-12T16:04:44.224Z,100004.28
2022-10-12T16:07:17.021Z,100007.06
2022-10-12T16:09:51.117Z,100012.75
2022-10-12T16:12:22.866Z,100003.31
2022-10-12T16:14:54.619Z,100005.34
2022-10-12T16:17:26.411Z,100011.06
2022-10-12T16:19:58.097Z,100007.09
2022-10-12T16:22:30.001Z,100007.84
2022-10-12T16:25:03.425Z,100007.56
2022-10-12T16:27:38.633Z,100016.31
2022-10-12T16:30:12.964Z,100004.72
2022-10-12T16:32:44.770Z,100011.84
2022-10-12T16:35:16.928Z,100013.19
2022-10-12T16:37:48.926Z,100002.41
2022-10-12T16:40:20.608Z,100012.81
2022-10-12T16:42:53.213Z,100008.03
2022-10-12T16:45:25.675Z,100010.59
2022-10-12T16:47:57.406Z,100013.16
2022-10-12T16:50:29.353Z,100020.03
2022-10-12T16:53:00.988Z,100023.25
2022-10-12T16:55:32.746Z,100024.63
2022-10-12T16:58:04.760Z,100017.16
2022-10-12T17:00:36.893Z,100025.88
2022-10-12T17:03:09.192Z,100032.94
2022-10-12T17:05:42.153Z,100030.19
2022-10-12T17:08:15.649Z,100030.22
2022-10-12T17:10:49.566Z,100033.59
2022-10-12T17:13:26.070Z,100032.88
2022-10-12T17:16:04.471Z,100028.44
2022-10-12T17:18:36.191Z,100031.78
2022-10-12T17:21:08.051Z,100032.22
2022-10-12T17:23:39.751Z,100042.69
2022-10-12T17:26:11.477Z,100036.25
2022-10-12T17:28:43.207Z,100034.44
2022-10-12T17:31:15.247Z,100032.31
2022-10-12T17:33:46.947Z,100038.50
2022-10-12T17:36:18.890Z,100037.38
2022-10-12T17:38:54.590Z,100040.72
2022-10-12T17:41:28.433Z,100037.28
2022-10-12T17:44:00.122Z,100037.16
2022-10-12T17:46:32.049Z,100031.69
2022-10-12T17:49:06.607Z,100036.72
2022-10-12T17:51:38.557Z,100050.50
2022-10-12T17:54:10.633Z,100042.03
2022-10-12T17:56:43.098Z,100045.38
2022-10-12T17:59:18.289Z,100047.88
2022-10-12T18:01:51.132Z,100043.44
2022-10-12T18:04:22.893Z,100048.41
2022-10-12T18:06:54.759Z,100048.44
2022-10-12T18:09:26.423Z,100044.63
2022-10-12T18:11:58.255Z,100049.63
2022-10-12T18:14:29.920Z,100041.16
2022-10-12T18:17:01.647Z,100034.66
2022-10-12T18:19:34.346Z,100039.34
2022-10-12T18:22:06.316Z,100041.63
2022-10-12T18:24:39.490Z,100042.13
2022-10-12T18:27:11.283Z,100037.34
2022-10-12T18:29:43.219Z,100039.50
2022-10-12T18:32:15.250Z,100041.81
2022-10-12T18:34:47.274Z,100037.00
2022-10-12T18:37:18.955Z,100039.03
2022-10-12T18:39:50.712Z,100036.00
2022-10-12T18:42:22.448Z,100033.03
2022-10-12T18:44:54.097Z,100039.66
2022-10-12T18:47:25.790Z,100035.69
2022-10-12T18:49:57.608Z,100036.16
2022-10-12T18:52:29.388Z,100034.34
2022-10-12T18:55:01.208Z,100041.81
2022-10-12T18:57:37.669Z,100036.34
2022-10-12T19:00:11.847Z,100042.50
2022-10-12T19:02:43.814Z,100034.69
2022-10-12T19:05:15.632Z,100032.69
2022-10-12T19:07:47.299Z,100029.88
2022-10-12T19:10:19.073Z,100033.84
2022-10-12T19:12:51.072Z,100035.00
2022-10-12T19:15:22.811Z,100031.84
2022-10-12T19:17:54.565Z,100036.63
2022-10-12T19:20:26.307Z,100033.34
2022-10-12T19:22:58.464Z,100039.78
2022-10-12T19:25:36.535Z,100047.22
2022-10-12T19:28:08.406Z,100042.38
2022-10-12T19:30:40.081Z,100041.91
2022-10-12T19:33:11.766Z,100043.22
2022-10-12T19:35:43.507Z,100044.50
2022-10-12T19:38:15.334Z,100045.69
2022-10-12T19:40:47.734Z,100038.03
2022-10-12T19:43:19.431Z,100041.84
2022-10-12T19:45:51.348Z,100046.63
2022-10-12T19:48:23.194Z,100041.81
2022-10-12T19:51:03.234Z,100047.09
2022-10-12T19:53:35.289Z,100039.75
2022-10-12T19:56:20.696Z,100040.88
2022-10-12T19:58:55.609Z,100041.38
2022-10-12T20:01:30.438Z,100038.19
2022-10-12T20:04:07.231Z,100037.00
2022-10-12T20:06:39.414Z,100043.47
2022-10-12T20:09:11.303Z,100037.19
2022-10-12T20:11:43.169Z,100044.31
2022-10-12T20:14:14.852Z,100042.78
2022-10-12T20:16:46.546Z,100040.28
2022-10-12T20:19:18.321Z,100036.31
2022-10-12T20:21:50.480Z,100037.44
2022-10-12T20:24:22.319Z,100039.72
2022-10-12T20:26:54.357Z,100027.81
2022-10-12T20:29:25.999Z,100032.44
2022-10-12T20:31:57.710Z,100033.59
2022-10-12T20:34:29.429Z,100028.59
2022-10-12T20:37:01.095Z,100030.72
2022-10-12T20:39:34.021Z,100036.50
2022-10-12T20:42:05.724Z,100035.44
2022-10-12T20:44:37.878Z,100033.09
2022-10-12T20:47:12.102Z,100041.22
2022-10-12T20:49:44.421Z,100042.66
2022-10-12T20:52:16.468Z,100039.47
2022-10-12T20:54:52.259Z,100040.78
2022-10-12T20:57:24.167Z,100031.66
2022-10-12T20:59:59.904Z,100034.06
2022-10-12T21:02:33.479Z,100034.53
2022-10-12T21:05:07.041Z,100034.84
2022-10-12T21:07:38.782Z,100036.97
2022-10-12T21:10:10.979Z,100041.03
2022-10-12T21:12:42.846Z,100030.75
2022-10-12T21:15:15.107Z,100033.59
2022-10-12T21:17:46.811Z,100033.72
2022-10-12T21:20:18.684Z,100034.84
2022-10-12T21:22:53.375Z,100031.69
2022-10-12T21:25:25.311Z,100038.09
2022-10-12T21:27:57.050Z,100041.06
2022-10-12T21:30:28.927Z,100040.38
2022-10-12T21:33:02.653Z,100035.41
2022-10-12T21:35:37.812Z,100038.31
2022-10-12T21:38:09.624Z,100037.13
2022-10-12T21:40:41.469Z,100035.75
2022-10-12T21:43:13.263Z,100032.44
2022-10-12T21:45:45.125Z,100035.22
2022-10-12T21:48:17.067Z,100028.59
2022-10-12T21:50:48.913Z,100026.09
2022-10-12T21:53:20.761Z,100026.41
2022-10-12T21:55:52.930Z,100030.84
2022-10-12T21:58:25.010Z,100028.44
2022-10-12T22:01:05.152Z,100042.50
2022-10-12T22:03:37.036Z,100041.00
2022-10-12T22:06:17.787Z,100040.44
2022-10-12T22:08:55.358Z,100037.28
2022-10-12T22:11:29.668Z,100044.50
2022-10-12T22:14:06.600Z,100032.44
2022-10-12T22:16:38.426Z,100031.75
2022-10-12T22:19:15.213Z,100033.88
2022-10-12T22:21:51.848Z,100035.00
2022-10-12T22:24:24.264Z,100034.28
2022-10-12T22:26:56.051Z,100032.66
2022-10-12T22:29:29.800Z,100034.59
2022-10-12T22:32:02.214Z,100039.06
2022-10-12T22:34:33.888Z,100035.72
2022-10-12T22:37:05.660Z,100024.50
2022-10-12T22:39:37.597Z,100023.94
2022-10-12T22:42:09.520Z,100025.09
2022-10-12T22:44:41.243Z,100021.75
2022-10-12T22:47:12.909Z,100021.75
2022-10-12T22:49:45.169Z,100017.44
2022-10-12T22:52:17.192Z,100022.59
2022-10-12T22:54:50.120Z,100015.66
2022-10-12T22:57:22.045Z,100012.47
2022-10-12T22:59:54.853Z,100010.13
2022-10-12T23:02:26.617Z,100019.19
2022-10-12T23:04:58.297Z,100017.78
2022-10-12T23:07:30.035Z,100023.38
2022-10-12T23:10:04.475Z,100016.56
2022-10-12T23:12:36.190Z,100010.63
2022-10-12T23:15:08.437Z,100010.75
2022-10-12T23:17:40.165Z,100011.72
2022-10-12T23:20:12.068Z,100019.94
2022-10-12T23:22:43.845Z,100021.06
2022-10-12T23:25:17.463Z,100030.78
2022-10-12T23:27:49.173Z,100029.09
2022-10-12T23:30:20.875Z,100029.53
2022-10-12T23:32:52.526Z,100021.78
2022-10-12T23:35:24.895Z,100021.38
2022-10-12T23:37:56.590Z,100025.97
2022-10-12T23:40:28.355Z,100020.84
2022-10-12T23:43:00.025Z,100016.69
2022-10-12T23:45:31.655Z,100019.63
2022-10-12T23:48:03.352Z,100025.03
2022-10-12T23:50:35.622Z,100019.06
2022-10-12T23:53:08.429Z,100016.59
2022-10-12T23:55:43.026Z,100008.13
2022-10-12T23:58:15.076Z,100002.44
